sensor_id;sensor_type;location;lat;lon;timestamp;temperature;humidity
54126;DHT22;40360;52.992;6.796;2023-03-23T00:00:08;11.20;99.90
54126;DHT22;40360;52.992;6.796;2023-03-23T00:02:34;11.20;99.90
54126;DHT22;40360;52.992;6.796;2023-03-23T00:05:05;11.20;99.90
54126;DHT22;40360;52.992;6.796;2023-03-23T00:07:33;11.20;99.90
54126;DHT22;40360;52.992;6.796;2023-03-23T00:09:59;11.20;99.90
54126;DHT22;40360;52.992;6.796;2023-03-23T00:12:29;11.20;99.90
54126;DHT22;40360;52.992;6.796;2023-03-23T00:15:06;11.20;99.90
54126;DHT22;40360;52.992;6.796;2023-03-23T00:17:34;11.30;99.90
54126;DHT22;40360;52.992;6.796;2023-03-23T00:20:00;11.20;99.90
54126;DHT22;40360;52.992;6.796;2023-03-23T00:22:29;11.20;99.90
54126;DHT22;40360;52.992;6.796;2023-03-23T00:24:54;11.20;99.90
54126;DHT22;40360;52.992;6.796;2023-03-23T00:27:22;11.20;99.90
54126;DHT22;40360;52.992;6.796;2023-03-23T00:29:49;11.30;99.90
54126;DHT22;40360;52.992;6.796;2023-03-23T00:32:19;11.30;99.90
54126;DHT22;40360;52.992;6.796;2023-03-23T00:34:46;11.30;99.90
54126;DHT22;40360;52.992;6.796;2023-03-23T00:37:14;11.30;99.90
54126;DHT22;40360;52.992;6.796;2023-03-23T00:39:42;11.30;99.90
54126;DHT22;40360;52.992;6.796;2023-03-23T00:42:09;11.30;99.90
54126;DHT22;40360;52.992;6.796;2023-03-23T00:44:36;11.30;99.90
54126;DHT22;40360;52.992;6.796;2023-03-23T00:47:03;11.30;99.90
54126;DHT22;40360;52.992;6.796;2023-03-23T00:49:29;11.40;99.90
54126;DHT22;40360;52.992;6.796;2023-03-23T00:51:56;11.30;99.90
54126;DHT22;40360;52.992;6.796;2023-03-23T00:54:23;11.30;99.90
54126;DHT22;40360;52.992;6.796;2023-03-23T00:56:49;11.30;99.90
54126;DHT22;40360;52.992;6.796;2023-03-23T00:59:15;11.40;99.90
54126;DHT22;40360;52.992;6.796;2023-03-23T01:01:41;11.40;99.90
54126;DHT22;40360;52.992;6.796;2023-03-23T01:04:07;11.40;99.90
54126;DHT22;40360;52.992;6.796;2023-03-23T01:06:36;11.40;99.90
54126;DHT22;40360;52.992;6.796;2023-03-23T01:09:07;11.40;99.90
54126;DHT22;40360;52.992;6.796;2023-03-23T01:11:33;11.40;99.90
54126;DHT22;40360;52.992;6.796;2023-03-23T01:13:59;11.40;99.90
54126;DHT22;40360;52.992;6.796;2023-03-23T01:16:25;11.40;99.90
54126;DHT22;40360;52.992;6.796;2023-03-23T01:18:51;11.40;99.90
54126;DHT22;40360;52.992;6.796;2023-03-23T01:21:19;11.50;99.90
54126;DHT22;40360;52.992;6.796;2023-03-23T01:23:45;11.50;99.90
54126;DHT22;40360;52.992;6.796;2023-03-23T01:26:15;11.50;99.90
54126;DHT22;40360;52.992;6.796;2023-03-23T01:28:42;11.50;99.90
54126;DHT22;40360;52.992;6.796;2023-03-23T01:31:12;11.40;99.90
54126;DHT22;40360;52.992;6.796;2023-03-23T01:33:39;11.40;99.90
54126;DHT22;40360;52.992;6.796;2023-03-23T01:36:16;11.40;99.90
54126;DHT22;40360;52.992;6.796;2023-03-23T01:38:44;11.40;99.90
54126;DHT22;40360;52.992;6.796;2023-03-23T01:41:11;11.40;99.90
54126;DHT22;40360;52.992;6.796;2023-03-23T01:43:54;11.40;99.90
54126;DHT22;40360;52.992;6.796;2023-03-23T01:46:20;11.50;99.90
54126;DHT22;40360;52.992;6.796;2023-03-23T01:48:49;11.50;99.90
54126;DHT22;40360;52.992;6.796;2023-03-23T01:51:16;11.50;99.90
54126;DHT22;40360;52.992;6.796;2023-03-23T01:53:52;11.50;99.90
54126;DHT22;40360;52.992;6.796;2023-03-23T01:56:21;11.50;99.90
54126;DHT22;40360;52.992;6.796;2023-03-23T01:58:51;11.50;99.90
54126;DHT22;40360;52.992;6.796;2023-03-23T02:01:16;11.50;99.90
54126;DHT22;40360;52.992;6.796;2023-03-23T02:03:44;11.40;99.90
54126;DHT22;40360;52.992;6.796;2023-03-23T02:06:12;11.40;99.90
54126;DHT22;40360;52.992;6.796;2023-03-23T02:08:38;11.40;99.90
54126;DHT22;40360;52.992;6.796;2023-03-23T02:11:14;10.90;99.90
54126;DHT22;40360;52.992;6.796;2023-03-23T02:13:40;11.40;99.90
54126;DHT22;40360;52.992;6.796;2023-03-23T02:24:47;11.40;99.90
54126;DHT22;40360;52.992;6.796;2023-03-23T02:32:54;11.40;99.90
54126;DHT22;40360;52.992;6.796;2023-03-23T02:35:38;11.40;99.90
54126;DHT22;40360;52.992;6.796;2023-03-23T02:38:15;11.40;99.90
54126;DHT22;40360;52.992;6.796;2023-03-23T02:40:47;11.40;99.90
54126;DHT22;40360;52.992;6.796;2023-03-23T02:43:16;11.40;99.90
54126;DHT22;40360;52.992;6.796;2023-03-23T02:45:45;11.40;99.90
54126;DHT22;40360;52.992;6.796;2023-03-23T02:48:13;11.50;99.90
54126;DHT22;40360;52.992;6.796;2023-03-23T02:50:42;11.50;99.90
54126;DHT22;40360;52.992;6.796;2023-03-23T02:53:10;11.40;99.90
54126;DHT22;40360;52.992;6.796;2023-03-23T02:55:39;11.50;99.90
54126;DHT22;40360;52.992;6.796;2023-03-23T02:58:08;11.40;99.90
54126;DHT22;40360;52.992;6.796;2023-03-23T03:00:34;11.40;99.90
54126;DHT22;40360;52.992;6.796;2023-03-23T03:03:00;11.40;99.90
54126;DHT22;40360;52.992;6.796;2023-03-23T03:11:08;11.40;99.90
54126;DHT22;40360;52.992;6.796;2023-03-23T03:16:16;11.40;99.90
54126;DHT22;40360;52.992;6.796;2023-03-23T03:21:13;11.40;99.90
54126;DHT22;40360;52.992;6.796;2023-03-23T03:23:42;11.40;99.90
54126;DHT22;40360;52.992;6.796;2023-03-23T03:26:11;11.40;99.90
54126;DHT22;40360;52.992;6.796;2023-03-23T03:28:39;11.40;99.90
54126;DHT22;40360;52.992;6.796;2023-03-23T03:31:06;11.40;99.90
54126;DHT22;40360;52.992;6.796;2023-03-23T03:33:36;11.40;99.90
54126;DHT22;40360;52.992;6.796;2023-03-23T03:36:04;11.40;99.90
54126;DHT22;40360;52.992;6.796;2023-03-23T03:38:44;11.40;99.90
54126;DHT22;40360;52.992;6.796;2023-03-23T03:41:10;11.40;99.90
54126;DHT22;40360;52.992;6.796;2023-03-23T03:43:36;11.40;99.90
54126;DHT22;40360;52.992;6.796;2023-03-23T03:46:02;11.40;99.90
54126;DHT22;40360;52.992;6.796;2023-03-23T03:48:28;11.40;99.90
54126;DHT22;40360;52.992;6.796;2023-03-23T03:50:54;11.40;99.90
54126;DHT22;40360;52.992;6.796;2023-03-23T03:53:22;11.40;99.90
54126;DHT22;40360;52.992;6.796;2023-03-23T03:55:48;11.40;99.90
54126;DHT22;40360;52.992;6.796;2023-03-23T03:58:15;11.40;99.90
54126;DHT22;40360;52.992;6.796;2023-03-23T04:00:41;11.40;99.90
54126;DHT22;40360;52.992;6.796;2023-03-23T04:03:07;11.40;99.90
54126;DHT22;40360;52.992;6.796;2023-03-23T04:05:35;11.40;99.90
54126;DHT22;40360;52.992;6.796;2023-03-23T04:08:03;11.40;99.90
54126;DHT22;40360;52.992;6.796;2023-03-23T04:10:29;11.40;99.90
54126;DHT22;40360;52.992;6.796;2023-03-23T04:12:56;11.30;99.90
54126;DHT22;40360;52.992;6.796;2023-03-23T04:15:23;11.40;99.90
54126;DHT22;40360;52.992;6.796;2023-03-23T04:17:49;11.40;99.90
54126;DHT22;40360;52.992;6.796;2023-03-23T04:20:16;11.50;99.90
54126;DHT22;40360;52.992;6.796;2023-03-23T04:22:47;11.50;99.90
54126;DHT22;40360;52.992;6.796;2023-03-23T04:25:17;11.50;99.90
54126;DHT22;40360;52.992;6.796;2023-03-23T04:27:46;11.50;99.90
54126;DHT22;40360;52.992;6.796;2023-03-23T04:30:19;11.60;99.90
54126;DHT22;40360;52.992;6.796;2023-03-23T04:32:45;11.60;99.90
54126;DHT22;40360;52.992;6.796;2023-03-23T04:35:12;11.60;99.90
54126;DHT22;40360;52.992;6.796;2023-03-23T04:37:40;11.60;99.90
54126;DHT22;40360;52.992;6.796;2023-03-23T04:40:07;11.60;99.90
54126;DHT22;40360;52.992;6.796;2023-03-23T04:42:38;11.60;99.90
54126;DHT22;40360;52.992;6.796;2023-03-23T04:45:05;11.60;99.90
54126;DHT22;40360;52.992;6.796;2023-03-23T04:47:33;11.70;99.90
54126;DHT22;40360;52.992;6.796;2023-03-23T04:50:06;11.70;99.90
54126;DHT22;40360;52.992;6.796;2023-03-23T04:52:33;11.70;99.90
54126;DHT22;40360;52.992;6.796;2023-03-23T04:54:58;11.70;99.90
54126;DHT22;40360;52.992;6.796;2023-03-23T04:57:24;11.60;99.90
54126;DHT22;40360;52.992;6.796;2023-03-23T04:59:53;11.60;99.90
54126;DHT22;40360;52.992;6.796;2023-03-23T05:02:19;11.60;99.90
54126;DHT22;40360;52.992;6.796;2023-03-23T05:04:44;11.50;99.90
54126;DHT22;40360;52.992;6.796;2023-03-23T05:07:11;11.50;99.90
54126;DHT22;40360;52.992;6.796;2023-03-23T05:09:37;11.40;99.90
54126;DHT22;40360;52.992;6.796;2023-03-23T05:12:07;11.30;99.90
54126;DHT22;40360;52.992;6.796;2023-03-23T05:14:33;11.20;99.90
54126;DHT22;40360;52.992;6.796;2023-03-23T05:17:00;11.10;99.90
54126;DHT22;40360;52.992;6.796;2023-03-23T05:19:25;11.00;99.90
54126;DHT22;40360;52.992;6.796;2023-03-23T05:21:51;10.90;99.90
54126;DHT22;40360;52.992;6.796;2023-03-23T05:24:17;10.80;99.90
54126;DHT22;40360;52.992;6.796;2023-03-23T05:26:43;10.70;99.90
54126;DHT22;40360;52.992;6.796;2023-03-23T05:29:10;10.70;99.90
54126;DHT22;40360;52.992;6.796;2023-03-23T05:31:36;10.60;99.90
54126;DHT22;40360;52.992;6.796;2023-03-23T05:34:02;10.50;99.90
54126;DHT22;40360;52.992;6.796;2023-03-23T05:36:29;10.40;99.90
54126;DHT22;40360;52.992;6.796;2023-03-23T05:38:54;10.40;99.90
54126;DHT22;40360;52.992;6.796;2023-03-23T05:41:20;10.40;99.90
54126;DHT22;40360;52.992;6.796;2023-03-23T06:02:07;10.60;99.90
54126;DHT22;40360;52.992;6.796;2023-03-23T06:04:33;10.60;99.90
54126;DHT22;40360;52.992;6.796;2023-03-23T06:07:01;10.60;99.90
54126;DHT22;40360;52.992;6.796;2023-03-23T06:09:27;10.60;99.90
54126;DHT22;40360;52.992;6.796;2023-03-23T06:11:53;10.70;99.90
54126;DHT22;40360;52.992;6.796;2023-03-23T06:14:19;10.80;99.90
54126;DHT22;40360;52.992;6.796;2023-03-23T06:16:44;10.70;99.90
54126;DHT22;40360;52.992;6.796;2023-03-23T06:19:10;10.70;99.90
54126;DHT22;40360;52.992;6.796;2023-03-23T06:21:37;10.60;99.90
54126;DHT22;40360;52.992;6.796;2023-03-23T06:24:02;10.60;99.90
54126;DHT22;40360;52.992;6.796;2023-03-23T06:26:33;10.60;99.90
54126;DHT22;40360;52.992;6.796;2023-03-23T06:28:59;10.60;99.90
54126;DHT22;40360;52.992;6.796;2023-03-23T06:31:26;10.60;99.90
54126;DHT22;40360;52.992;6.796;2023-03-23T06:33:52;10.80;99.90
54126;DHT22;40360;52.992;6.796;2023-03-23T06:36:18;10.70;99.90
54126;DHT22;40360;52.992;6.796;2023-03-23T06:38:44;10.70;99.90
54126;DHT22;40360;52.992;6.796;2023-03-23T06:41:11;10.70;99.90
54126;DHT22;40360;52.992;6.796;2023-03-23T06:43:37;10.70;99.90
54126;DHT22;40360;52.992;6.796;2023-03-23T06:46:05;10.70;99.90
54126;DHT22;40360;52.992;6.796;2023-03-23T06:48:31;10.70;99.90
54126;DHT22;40360;52.992;6.796;2023-03-23T06:50:57;10.70;99.90
54126;DHT22;40360;52.992;6.796;2023-03-23T06:53:23;10.80;99.90
54126;DHT22;40360;52.992;6.796;2023-03-23T06:55:49;10.60;99.90
54126;DHT22;40360;52.992;6.796;2023-03-23T06:58:15;10.60;99.90
54126;DHT22;40360;52.992;6.796;2023-03-23T07:00:41;10.70;99.90
54126;DHT22;40360;52.992;6.796;2023-03-23T07:03:07;10.70;99.90
54126;DHT22;40360;52.992;6.796;2023-03-23T07:05:34;10.70;99.90
54126;DHT22;40360;52.992;6.796;2023-03-23T07:08:01;10.80;99.90
54126;DHT22;40360;52.992;6.796;2023-03-23T07:10:28;10.80;99.90
54126;DHT22;40360;52.992;6.796;2023-03-23T07:12:53;10.90;99.90
54126;DHT22;40360;52.992;6.796;2023-03-23T07:15:19;10.90;99.90
54126;DHT22;40360;52.992;6.796;2023-03-23T07:17:45;11.00;99.90
54126;DHT22;40360;52.992;6.796;2023-03-23T07:20:12;11.00;99.90
54126;DHT22;40360;52.992;6.796;2023-03-23T07:22:38;11.00;99.90
54126;DHT22;40360;52.992;6.796;2023-03-23T07:25:04;11.00;99.90
54126;DHT22;40360;52.992;6.796;2023-03-23T07:27:30;11.00;99.90
54126;DHT22;40360;52.992;6.796;2023-03-23T07:29:56;11.00;99.90
54126;DHT22;40360;52.992;6.796;2023-03-23T07:32:23;11.10;99.90
54126;DHT22;40360;52.992;6.796;2023-03-23T07:34:49;11.10;99.90
54126;DHT22;40360;52.992;6.796;2023-03-23T07:37:15;11.10;99.90
54126;DHT22;40360;52.992;6.796;2023-03-23T07:39:42;11.10;99.90
54126;DHT22;40360;52.992;6.796;2023-03-23T07:42:08;11.10;99.90
54126;DHT22;40360;52.992;6.796;2023-03-23T07:44:34;11.20;99.90
54126;DHT22;40360;52.992;6.796;2023-03-23T07:47:00;11.20;99.90
54126;DHT22;40360;52.992;6.796;2023-03-23T07:49:26;11.30;99.90
54126;DHT22;40360;52.992;6.796;2023-03-23T07:51:52;11.40;99.90
54126;DHT22;40360;52.992;6.796;2023-03-23T07:54:18;11.40;99.90
54126;DHT22;40360;52.992;6.796;2023-03-23T07:56:44;11.40;99.90
54126;DHT22;40360;52.992;6.796;2023-03-23T07:59:11;11.50;99.90
54126;DHT22;40360;52.992;6.796;2023-03-23T08:01:38;11.50;99.90
54126;DHT22;40360;52.992;6.796;2023-03-23T08:04:04;11.50;99.90
54126;DHT22;40360;52.992;6.796;2023-03-23T08:06:32;11.50;99.90
54126;DHT22;40360;52.992;6.796;2023-03-23T08:08:59;11.60;99.90
54126;DHT22;40360;52.992;6.796;2023-03-23T08:11:26;11.60;99.90
54126;DHT22;40360;52.992;6.796;2023-03-23T08:13:52;11.60;99.90
54126;DHT22;40360;52.992;6.796;2023-03-23T08:16:18;11.60;99.90
54126;DHT22;40360;52.992;6.796;2023-03-23T08:18:45;11.60;99.90
54126;DHT22;40360;52.992;6.796;2023-03-23T08:21:11;11.70;99.90
54126;DHT22;40360;52.992;6.796;2023-03-23T08:23:37;11.60;99.90
54126;DHT22;40360;52.992;6.796;2023-03-23T08:26:06;11.60;99.90
54126;DHT22;40360;52.992;6.796;2023-03-23T08:28:36;11.60;99.90
54126;DHT22;40360;52.992;6.796;2023-03-23T08:31:10;11.60;99.90
54126;DHT22;40360;52.992;6.796;2023-03-23T08:33:37;11.70;99.90
54126;DHT22;40360;52.992;6.796;2023-03-23T08:36:04;11.70;99.90
54126;DHT22;40360;52.992;6.796;2023-03-23T08:38:30;11.70;99.90
54126;DHT22;40360;52.992;6.796;2023-03-23T08:41:01;11.70;99.90
54126;DHT22;40360;52.992;6.796;2023-03-23T08:43:31;11.70;99.90
54126;DHT22;40360;52.992;6.796;2023-03-23T08:45:57;11.70;99.90
54126;DHT22;40360;52.992;6.796;2023-03-23T08:48:23;11.70;99.90
54126;DHT22;40360;52.992;6.796;2023-03-23T08:50:49;11.80;99.90
54126;DHT22;40360;52.992;6.796;2023-03-23T08:53:15;11.80;99.90
54126;DHT22;40360;52.992;6.796;2023-03-23T08:55:41;11.70;99.90
54126;DHT22;40360;52.992;6.796;2023-03-23T08:58:08;11.80;99.90
54126;DHT22;40360;52.992;6.796;2023-03-23T09:00:34;11.90;99.90
54126;DHT22;40360;52.992;6.796;2023-03-23T09:03:00;12.10;99.90
54126;DHT22;40360;52.992;6.796;2023-03-23T09:05:27;12.20;99.90
54126;DHT22;40360;52.992;6.796;2023-03-23T09:07:55;12.10;99.90
54126;DHT22;40360;52.992;6.796;2023-03-23T09:10:25;12.10;99.90
54126;DHT22;40360;52.992;6.796;2023-03-23T09:12:52;12.00;99.90
54126;DHT22;40360;52.992;6.796;2023-03-23T09:15:18;11.90;99.90
54126;DHT22;40360;52.992;6.796;2023-03-23T09:17:51;11.90;99.90
54126;DHT22;40360;52.992;6.796;2023-03-23T09:20:21;11.90;99.90
54126;DHT22;40360;52.992;6.796;2023-03-23T09:22:49;11.80;99.90
54126;DHT22;40360;52.992;6.796;2023-03-23T09:25:18;11.80;99.90
54126;DHT22;40360;52.992;6.796;2023-03-23T09:27:50;11.90;99.90
54126;DHT22;40360;52.992;6.796;2023-03-23T09:30:20;12.00;99.90
54126;DHT22;40360;52.992;6.796;2023-03-23T09:32:47;12.00;99.90
54126;DHT22;40360;52.992;6.796;2023-03-23T09:35:14;12.00;99.90
54126;DHT22;40360;52.992;6.796;2023-03-23T09:37:44;12.00;99.90
54126;DHT22;40360;52.992;6.796;2023-03-23T09:40:49;12.00;99.90
54126;DHT22;40360;52.992;6.796;2023-03-23T09:46:15;12.00;99.90
54126;DHT22;40360;52.992;6.796;2023-03-23T09:48:50;12.00;99.90
54126;DHT22;40360;52.992;6.796;2023-03-23T09:54:29;11.90;99.90
54126;DHT22;40360;52.992;6.796;2023-03-23T09:56:58;11.80;99.90
54126;DHT22;40360;52.992;6.796;2023-03-23T10:02:24;12.10;99.90
54126;DHT22;40360;52.992;6.796;2023-03-23T10:04:54;12.20;99.90
54126;DHT22;40360;52.992;6.796;2023-03-23T10:07:22;12.40;99.90
54126;DHT22;40360;52.992;6.796;2023-03-23T10:09:56;12.50;99.90
54126;DHT22;40360;52.992;6.796;2023-03-23T10:12:30;12.60;99.90
54126;DHT22;40360;52.992;6.796;2023-03-23T10:15:19;12.70;99.90
54126;DHT22;40360;52.992;6.796;2023-03-23T10:18:03;12.80;99.90
54126;DHT22;40360;52.992;6.796;2023-03-23T10:25:54;12.80;99.90
54126;DHT22;40360;52.992;6.796;2023-03-23T10:28:32;13.00;99.90
54126;DHT22;40360;52.992;6.796;2023-03-23T10:31:00;13.30;99.90
54126;DHT22;40360;52.992;6.796;2023-03-23T10:33:47;13.30;99.90
54126;DHT22;40360;52.992;6.796;2023-03-23T10:36:24;13.40;99.90
54126;DHT22;40360;52.992;6.796;2023-03-23T10:39:05;13.60;99.90
54126;DHT22;40360;52.992;6.796;2023-03-23T10:41:33;13.70;99.90
54126;DHT22;40360;52.992;6.796;2023-03-23T10:43:59;13.90;99.90
54126;DHT22;40360;52.992;6.796;2023-03-23T10:46:44;14.00;99.90
54126;DHT22;40360;52.992;6.796;2023-03-23T10:49:47;13.50;99.90
54126;DHT22;40360;52.992;6.796;2023-03-23T10:55:18;13.50;99.90
54126;DHT22;40360;52.992;6.796;2023-03-23T10:57:46;13.60;99.90
54126;DHT22;40360;52.992;6.796;2023-03-23T11:00:21;13.60;99.90
54126;DHT22;40360;52.992;6.796;2023-03-23T11:03:06;13.70;99.90
54126;DHT22;40360;52.992;6.796;2023-03-23T11:05:36;13.50;99.90
54126;DHT22;40360;52.992;6.796;2023-03-23T11:08:03;13.30;99.90
54126;DHT22;40360;52.992;6.796;2023-03-23T11:10:41;13.10;99.90
54126;DHT22;40360;52.992;6.796;2023-03-23T11:13:13;12.90;99.90
54126;DHT22;40360;52.992;6.796;2023-03-23T11:15:41;12.90;99.90
54126;DHT22;40360;52.992;6.796;2023-03-23T11:18:13;12.90;99.90
54126;DHT22;40360;52.992;6.796;2023-03-23T11:20:44;12.90;99.90
54126;DHT22;40360;52.992;6.796;2023-03-23T11:23:23;12.90;99.90
54126;DHT22;40360;52.992;6.796;2023-03-23T11:25:56;13.00;99.90
54126;DHT22;40360;52.992;6.796;2023-03-23T11:28:27;13.00;99.90
54126;DHT22;40360;52.992;6.796;2023-03-23T11:30:55;12.90;99.90
54126;DHT22;40360;52.992;6.796;2023-03-23T11:33:21;12.90;99.90
54126;DHT22;40360;52.992;6.796;2023-03-23T11:35:53;13.00;99.90
54126;DHT22;40360;52.992;6.796;2023-03-23T11:38:22;13.00;99.90
54126;DHT22;40360;52.992;6.796;2023-03-23T11:40:51;13.10;99.90
54126;DHT22;40360;52.992;6.796;2023-03-23T11:43:23;13.00;99.90
54126;DHT22;40360;52.992;6.796;2023-03-23T11:46:05;13.10;99.90
54126;DHT22;40360;52.992;6.796;2023-03-23T11:51:30;13.60;99.90
54126;DHT22;40360;52.992;6.796;2023-03-23T11:56:47;14.00;99.90
54126;DHT22;40360;52.992;6.796;2023-03-23T11:59:16;14.30;99.90
54126;DHT22;40360;52.992;6.796;2023-03-23T12:26:50;15.00;99.90
54126;DHT22;40360;52.992;6.796;2023-03-23T12:29:44;15.00;99.90
54126;DHT22;40360;52.992;6.796;2023-03-23T12:35:25;14.70;99.90
54126;DHT22;40360;52.992;6.796;2023-03-23T12:38:15;14.80;99.90
54126;DHT22;40360;52.992;6.796;2023-03-23T12:43:34;15.10;99.90
54126;DHT22;40360;52.992;6.796;2023-03-23T12:51:43;14.90;99.90
54126;DHT22;40360;52.992;6.796;2023-03-23T12:59:48;15.20;99.90
54126;DHT22;40360;52.992;6.796;2023-03-23T13:02:37;15.00;99.90
54126;DHT22;40360;52.992;6.796;2023-03-23T13:05:04;14.50;99.90
54126;DHT22;40360;52.992;6.796;2023-03-23T13:07:37;14.50;99.90
54126;DHT22;40360;52.992;6.796;2023-03-23T13:10:21;14.80;99.90
54126;DHT22;40360;52.992;6.796;2023-03-23T13:12:49;14.70;99.90
54126;DHT22;40360;52.992;6.796;2023-03-23T13:15:44;14.90;99.90
54126;DHT22;40360;52.992;6.796;2023-03-23T13:18:38;14.90;99.90
54126;DHT22;40360;52.992;6.796;2023-03-23T13:21:17;14.80;99.90
54126;DHT22;40360;52.992;6.796;2023-03-23T13:24:06;14.90;99.90
54126;DHT22;40360;52.992;6.796;2023-03-23T13:26:39;14.60;99.90
54126;DHT22;40360;52.992;6.796;2023-03-23T13:29:13;14.50;99.90
54126;DHT22;40360;52.992;6.796;2023-03-23T13:31:40;14.50;99.90
54126;DHT22;40360;52.992;6.796;2023-03-23T13:34:18;14.70;99.90
54126;DHT22;40360;52.992;6.796;2023-03-23T13:36:55;14.80;99.90
54126;DHT22;40360;52.992;6.796;2023-03-23T13:39:48;14.90;99.90
54126;DHT22;40360;52.992;6.796;2023-03-23T13:50:02;14.90;99.90
54126;DHT22;40360;52.992;6.796;2023-03-23T13:52:59;14.70;99.90
54126;DHT22;40360;52.992;6.796;2023-03-23T13:55:41;14.50;99.90
54126;DHT22;40360;52.992;6.796;2023-03-23T14:03:25;14.30;99.90
54126;DHT22;40360;52.992;6.796;2023-03-23T14:06:02;14.30;99.90
54126;DHT22;40360;52.992;6.796;2023-03-23T14:11:12;14.20;99.90
54126;DHT22;40360;52.992;6.796;2023-03-23T14:13:51;14.20;99.90
54126;DHT22;40360;52.992;6.796;2023-03-23T14:16:31;14.20;99.90
54126;DHT22;40360;52.992;6.796;2023-03-23T14:19:02;14.10;99.90
54126;DHT22;40360;52.992;6.796;2023-03-23T14:24:01;14.10;99.90
54126;DHT22;40360;52.992;6.796;2023-03-23T14:26:26;14.40;99.90
54126;DHT22;40360;52.992;6.796;2023-03-23T14:28:53;14.60;99.90
54126;DHT22;40360;52.992;6.796;2023-03-23T14:31:27;14.50;99.90
54126;DHT22;40360;52.992;6.796;2023-03-23T14:33:55;14.10;99.90
54126;DHT22;40360;52.992;6.796;2023-03-23T14:36:27;14.10;99.90
54126;DHT22;40360;52.992;6.796;2023-03-23T14:41:49;14.00;99.90
54126;DHT22;40360;52.992;6.796;2023-03-23T14:44:19;14.10;99.90
54126;DHT22;40360;52.992;6.796;2023-03-23T14:46:46;14.00;99.90
54126;DHT22;40360;52.992;6.796;2023-03-23T14:49:17;13.90;99.90
54126;DHT22;40360;52.992;6.796;2023-03-23T14:51:50;13.90;99.90
54126;DHT22;40360;52.992;6.796;2023-03-23T14:54:27;13.80;99.90
54126;DHT22;40360;52.992;6.796;2023-03-23T14:56:55;13.70;99.90
54126;DHT22;40360;52.992;6.796;2023-03-23T14:59:21;13.60;99.90
54126;DHT22;40360;52.992;6.796;2023-03-23T15:01:49;13.60;99.90
54126;DHT22;40360;52.992;6.796;2023-03-23T15:04:24;13.80;99.90
54126;DHT22;40360;52.992;6.796;2023-03-23T15:06:55;14.00;99.90
54126;DHT22;40360;52.992;6.796;2023-03-23T15:09:23;14.20;99.90
54126;DHT22;40360;52.992;6.796;2023-03-23T15:12:00;14.30;99.90
54126;DHT22;40360;52.992;6.796;2023-03-23T15:14:30;14.40;99.90
54126;DHT22;40360;52.992;6.796;2023-03-23T15:16:57;14.50;99.90
54126;DHT22;40360;52.992;6.796;2023-03-23T15:19:32;14.50;99.90
54126;DHT22;40360;52.992;6.796;2023-03-23T15:22:26;14.70;99.90
54126;DHT22;40360;52.992;6.796;2023-03-23T15:25:12;14.50;99.90
54126;DHT22;40360;52.992;6.796;2023-03-23T15:27:49;14.50;99.90
54126;DHT22;40360;52.992;6.796;2023-03-23T15:30:27;14.40;99.90
54126;DHT22;40360;52.992;6.796;2023-03-23T15:33:09;14.50;99.90
54126;DHT22;40360;52.992;6.796;2023-03-23T15:35:39;14.60;99.90
54126;DHT22;40360;52.992;6.796;2023-03-23T15:40:50;14.70;99.90
54126;DHT22;40360;52.992;6.796;2023-03-23T15:43:17;14.60;99.90
54126;DHT22;40360;52.992;6.796;2023-03-23T15:48:21;14.80;99.90
54126;DHT22;40360;52.992;6.796;2023-03-23T15:50:48;14.80;99.90
54126;DHT22;40360;52.992;6.796;2023-03-23T15:55:52;14.80;99.90
54126;DHT22;40360;52.992;6.796;2023-03-23T15:58:18;14.90;99.90
54126;DHT22;40360;52.992;6.796;2023-03-23T16:00:44;14.90;99.90
54126;DHT22;40360;52.992;6.796;2023-03-23T16:03:25;15.00;99.90
54126;DHT22;40360;52.992;6.796;2023-03-23T16:05:56;15.20;99.90
54126;DHT22;40360;52.992;6.796;2023-03-23T16:08:25;15.60;99.90
54126;DHT22;40360;52.992;6.796;2023-03-23T16:10:51;15.90;99.90
54126;DHT22;40360;52.992;6.796;2023-03-23T16:13:17;15.40;99.90
54126;DHT22;40360;52.992;6.796;2023-03-23T16:15:43;15.50;99.90
54126;DHT22;40360;52.992;6.796;2023-03-23T16:18:17;15.30;99.90
54126;DHT22;40360;52.992;6.796;2023-03-23T16:20:44;15.00;99.90
54126;DHT22;40360;52.992;6.796;2023-03-23T16:23:10;14.80;99.90
54126;DHT22;40360;52.992;6.796;2023-03-23T16:25:36;14.70;99.90
54126;DHT22;40360;52.992;6.796;2023-03-23T16:28:01;14.60;99.90
54126;DHT22;40360;52.992;6.796;2023-03-23T16:30:28;14.40;99.90
54126;DHT22;40360;52.992;6.796;2023-03-23T16:32:56;14.20;99.90
54126;DHT22;40360;52.992;6.796;2023-03-23T16:35:22;14.20;99.90
54126;DHT22;40360;52.992;6.796;2023-03-23T16:37:53;14.10;99.90
54126;DHT22;40360;52.992;6.796;2023-03-23T16:40:19;14.20;99.90
54126;DHT22;40360;52.992;6.796;2023-03-23T16:42:46;14.20;99.90
54126;DHT22;40360;52.992;6.796;2023-03-23T16:45:13;14.10;99.90
54126;DHT22;40360;52.992;6.796;2023-03-23T16:47:39;14.00;99.90
54126;DHT22;40360;52.992;6.796;2023-03-23T16:50:08;13.90;99.90
54126;DHT22;40360;52.992;6.796;2023-03-23T16:52:37;14.00;99.90
54126;DHT22;40360;52.992;6.796;2023-03-23T16:55:04;14.00;99.90
54126;DHT22;40360;52.992;6.796;2023-03-23T16:57:32;14.00;99.90
54126;DHT22;40360;52.992;6.796;2023-03-23T16:59:59;13.90;99.90
54126;DHT22;40360;52.992;6.796;2023-03-23T17:02:26;13.80;99.90
54126;DHT22;40360;52.992;6.796;2023-03-23T17:04:52;13.70;99.90
54126;DHT22;40360;52.992;6.796;2023-03-23T17:07:18;13.50;99.90
54126;DHT22;40360;52.992;6.796;2023-03-23T17:09:44;13.40;99.90
54126;DHT22;40360;52.992;6.796;2023-03-23T17:12:10;13.30;99.90
54126;DHT22;40360;52.992;6.796;2023-03-23T17:14:35;13.30;99.90
54126;DHT22;40360;52.992;6.796;2023-03-23T17:17:01;13.20;99.90
54126;DHT22;40360;52.992;6.796;2023-03-23T17:19:27;13.20;99.90
54126;DHT22;40360;52.992;6.796;2023-03-23T17:21:53;13.20;99.90
54126;DHT22;40360;52.992;6.796;2023-03-23T17:24:19;13.20;99.90
54126;DHT22;40360;52.992;6.796;2023-03-23T17:26:45;13.10;99.90
54126;DHT22;40360;52.992;6.796;2023-03-23T17:29:12;13.10;99.90
54126;DHT22;40360;52.992;6.796;2023-03-23T17:31:38;13.10;99.90
54126;DHT22;40360;52.992;6.796;2023-03-23T17:34:03;13.10;99.90
54126;DHT22;40360;52.992;6.796;2023-03-23T17:36:29;13.00;99.90
54126;DHT22;40360;52.992;6.796;2023-03-23T17:38:55;12.90;99.90
54126;DHT22;40360;52.992;6.796;2023-03-23T17:41:20;12.90;99.90
54126;DHT22;40360;52.992;6.796;2023-03-23T17:43:46;12.90;99.90
54126;DHT22;40360;52.992;6.796;2023-03-23T17:46:12;12.80;99.90
54126;DHT22;40360;52.992;6.796;2023-03-23T17:48:38;12.70;99.90
54126;DHT22;40360;52.992;6.796;2023-03-23T17:51:05;12.60;99.90
54126;DHT22;40360;52.992;6.796;2023-03-23T17:53:32;12.60;99.90
54126;DHT22;40360;52.992;6.796;2023-03-23T17:56:00;12.50;99.90
54126;DHT22;40360;52.992;6.796;2023-03-23T17:58:27;12.50;99.90
54126;DHT22;40360;52.992;6.796;2023-03-23T18:00:56;12.40;99.90